createdAt,value
2022-09-21T00:01:39.547Z,100663.34
2022-09-21T00:07:01.395Z,100660.50
2022-09-21T00:12:23.176Z,100663.78
2022-09-21T00:17:46.467Z,100664.44
2022-09-21T00:23:08.259Z,100659.97
2022-09-21T00:28:30.057Z,100658.97
2022-09-21T00:33:52.923Z,100665.63
2022-09-21T00:39:14.687Z,100665.69
2022-09-21T00:44:36.677Z,100667.28
2022-09-21T00:50:00.973Z,100664.81
2022-09-21T00:55:30.451Z,100667.91
2022-09-21T01:00:52.543Z,100661.72
2022-09-21T01:06:18.087Z,100656.69
2022-09-21T01:11:39.817Z,100670.31
2022-09-21T01:17:21.648Z,100672.09
2022-09-21T01:23:25.351Z,100670.38
2022-09-21T01:28:56.358Z,100674.59
2022-09-21T01:34:53.376Z,100684.94
2022-09-21T01:40:30.886Z,100686.38
2022-09-21T01:45:58.978Z,100681.34
2022-09-21T01:51:25.776Z,100702.00
2022-09-21T01:56:49.602Z,100705.25
2022-09-21T02:02:16.603Z,100699.88
2022-09-21T02:07:39.403Z,100702.38
2022-09-21T02:13:04.772Z,100700.09
2022-09-21T02:19:03.644Z,100705.38
2022-09-21T02:24:39.500Z,100702.84
2022-09-21T02:30:10.326Z,100704.03
2022-09-21T02:35:59.642Z,100696.50
2022-09-21T02:41:37.748Z,100691.34
2022-09-21T02:47:08.556Z,100708.59
2022-09-21T02:52:33.679Z,100711.91
2022-09-21T02:57:56.145Z,100720.50
2022-09-21T03:03:20.596Z,100711.19
2022-09-21T03:08:42.364Z,100720.44
2022-09-21T03:14:04.426Z,100723.22
2022-09-21T03:19:26.627Z,100719.59
2022-09-21T03:24:48.548Z,100725.47
2022-09-21T03:30:10.945Z,100721.31
2022-09-21T03:35:33.088Z,100723.22
2022-09-21T03:40:54.911Z,100729.03
2022-09-21T03:46:16.741Z,100740.41
2022-09-21T03:51:38.707Z,100728.94
2022-09-21T03:57:00.479Z,100732.25
2022-09-21T04:02:22.305Z,100740.94
2022-09-21T04:07:45.279Z,100746.91
2022-09-21T04:13:07.043Z,100739.16
2022-09-21T04:18:28.889Z,100752.75
2022-09-21T04:23:50.709Z,100750.13
2022-09-21T04:29:13.477Z,100757.06
2022-09-21T04:34:35.325Z,100761.19
2022-09-21T04:39:57.321Z,100766.31
2022-09-21T04:45:20.397Z,100770.25
2022-09-21T04:50:42.203Z,100774.69
2022-09-21T04:56:05.843Z,100773.53
2022-09-21T05:01:27.710Z,100768.28
2022-09-21T05:06:49.546Z,100781.69
2022-09-21T05:12:11.457Z,100788.00
2022-09-21T05:17:33.215Z,100791.28
2022-09-21T05:22:55.041Z,100794.50
2022-09-21T05:28:18.477Z,100797.97
2022-09-21T05:33:44.587Z,100800.31
2022-09-21T05:39:06.801Z,100816.72
2022-09-21T05:44:28.925Z,100809.59
2022-09-21T05:50:16.735Z,100817.19
2022-09-21T05:56:00.714Z,100816.38
2022-09-21T06:01:45.495Z,100823.59
2022-09-21T06:07:07.255Z,100822.00
2022-09-21T06:12:29.030Z,100823.53
2022-09-21T06:17:50.817Z,100830.59
2022-09-21T06:23:13.776Z,100833.56
2022-09-21T06:28:35.768Z,100836.38
2022-09-21T06:33:57.713Z,100839.72
2022-09-21T06:39:19.465Z,100837.59
2022-09-21T06:44:41.247Z,100854.97
2022-09-21T06:50:03.121Z,100855.41
2022-09-21T06:55:24.941Z,100857.22
2022-09-21T07:00:46.844Z,100857.09
2022-09-21T07:06:10.628Z,100862.38
2022-09-21T07:11:32.591Z,100863.63
2022-09-21T07:16:54.354Z,100865.13
2022-09-21T07:22:16.142Z,100872.69
2022-09-21T07:27:38.250Z,100866.28
2022-09-21T07:33:00.037Z,100868.63
2022-09-21T07:38:21.898Z,100870.66
2022-09-21T07:43:43.668Z,100878.88
2022-09-21T07:49:05.484Z,100882.72
2022-09-21T07:54:27.275Z,100876.34
2022-09-21T07:59:49.086Z,100885.00
2022-09-21T08:05:10.882Z,100876.41
2022-09-21T08:10:32.824Z,100886.97
2022-09-21T08:16:02.071Z,100887.84
2022-09-21T08:21:24.033Z,100887.78
2022-09-21T08:26:46.117Z,100901.34
2022-09-21T08:32:07.909Z,100908.06
2022-09-21T08:37:29.725Z,100906.03
2022-09-21T08:43:00.838Z,100910.28
2022-09-21T08:48:36.648Z,100912.94
2022-09-21T08:54:06.986Z,100904.19
2022-09-21T08:59:28.834Z,100908.09
2022-09-21T09:05:02.427Z,100916.81
2022-09-21T09:10:59.836Z,100914.00
2022-09-21T09:16:53.649Z,100902.03
2022-09-21T09:22:23.602Z,100902.75
2022-09-21T09:27:48.082Z,100907.28
2022-09-21T09:33:44.659Z,100904.66
2022-09-21T09:39:12.919Z,100904.22
2022-09-21T09:45:12.628Z,100902.06
2022-09-21T09:50:38.562Z,100906.56
2022-09-21T09:56:00.855Z,100889.78
2022-09-21T10:01:59.498Z,100893.47
2022-09-21T10:07:34.264Z,100903.56
2022-09-21T10:13:09.849Z,100902.97
2022-09-21T10:18:49.631Z,100906.06
2022-09-21T10:24:21.681Z,100908.78
2022-09-21T10:29:45.414Z,100919.00
2022-09-21T10:35:07.355Z,100924.88
2022-09-21T10:40:29.597Z,100919.38
2022-09-21T10:45:56.002Z,100916.13
2022-09-21T10:51:28.180Z,100903.69
2022-09-21T10:56:54.619Z,100902.69
2022-09-21T11:02:36.800Z,100904.13
2022-09-21T11:08:24.706Z,100902.50
2022-09-21T11:13:53.115Z,100910.47
2022-09-21T11:19:35.895Z,100903.19
2022-09-21T11:25:03.393Z,100891.81
2022-09-21T11:30:27.068Z,100889.78
2022-09-21T11:35:56.440Z,100879.81
2022-09-21T11:41:28.983Z,100882.97
2022-09-21T11:47:09.019Z,100871.31
2022-09-21T11:53:08.212Z,100875.56
2022-09-21T11:58:46.665Z,100876.38
2022-09-21T12:04:32.025Z,100873.88
2022-09-21T12:10:17.571Z,100871.69
2022-09-21T12:16:11.681Z,100867.97
2022-09-21T12:21:46.966Z,100856.00
2022-09-21T12:27:36.634Z,100840.41
2022-09-21T12:33:04.544Z,100842.63
2022-09-21T12:38:35.075Z,100832.38
2022-09-21T12:44:13.260Z,100838.81
2022-09-21T12:49:41.134Z,100831.22
2022-09-21T12:55:05.671Z,100838.44
2022-09-21T13:00:34.572Z,100820.41
2022-09-21T13:06:27.118Z,100822.28
2022-09-21T13:11:56.488Z,100825.16
2022-09-21T13:17:22.963Z,100834.41
2022-09-21T13:22:45.712Z,100838.47
2022-09-21T13:28:10.184Z,100852.72
2022-09-21T13:33:38.609Z,100851.28
2022-09-21T13:39:05.208Z,100854.50
2022-09-21T13:44:43.691Z,100856.97
2022-09-21T13:50:21.836Z,100843.81
2022-09-21T13:56:02.051Z,100843.94
2022-09-21T14:01:47.809Z,100834.72
2022-09-21T14:07:10.163Z,100828.75
2022-09-21T14:12:39.184Z,100828.59
2022-09-21T14:18:20.300Z,100845.56
2022-09-21T14:23:42.150Z,100847.94
2022-09-21T14:29:23.807Z,100846.16
2022-09-21T14:34:48.315Z,100847.63
2022-09-21T14:40:23.982Z,100847.13
2022-09-21T14:46:16.969Z,100845.94
2022-09-21T14:52:04.311Z,100848.13
2022-09-21T14:57:56.406Z,100842.59
2022-09-21T15:03:29.999Z,100856.03
2022-09-21T15:08:59.074Z,100844.94
2022-09-21T15:14:37.001Z,100845.78
2022-09-21T15:20:00.666Z,100858.34
2022-09-21T15:25:25.154Z,100852.19
2022-09-21T15:30:47.024Z,100854.00
2022-09-21T15:36:08.856Z,100864.03
2022-09-21T15:41:42.536Z,100867.84
2022-09-21T15:47:08.454Z,100865.31
2022-09-21T15:52:38.501Z,100875.22
2022-09-21T15:58:00.918Z,100883.16
2022-09-21T16:03:24.914Z,100885.03
2022-09-21T16:08:46.759Z,100895.72
2022-09-21T16:14:14.535Z,100906.22
2022-09-21T16:19:43.395Z,100905.72
2022-09-21T16:25:23.451Z,100907.22
2022-09-21T16:30:50.346Z,100905.09
2022-09-21T16:36:37.190Z,100912.25
2022-09-21T16:42:03.313Z,100906.69
2022-09-21T16:47:28.737Z,100924.19
2022-09-21T16:52:50.687Z,100917.31
2022-09-21T16:58:12.469Z,100926.34
2022-09-21T17:03:34.305Z,100932.53
2022-09-21T17:08:57.021Z,100929.31
2022-09-21T17:14:19.357Z,100932.78
2022-09-21T17:19:41.148Z,100939.72
2022-09-21T17:25:03.209Z,100939.03
2022-09-21T17:30:26.611Z,100958.84
2022-09-21T17:35:48.803Z,100960.97
2022-09-21T17:41:23.318Z,100960.56
2022-09-21T17:47:12.589Z,100964.50
2022-09-21T17:52:34.759Z,100965.38
2022-09-21T17:58:34.125Z,100968.41
2022-09-21T18:03:56.138Z,100966.66
2022-09-21T18:09:18.291Z,100954.75
2022-09-21T18:15:02.858Z,100984.09
2022-09-21T18:20:57.885Z,100980.19
2022-09-21T18:26:20.171Z,100979.28
2022-09-21T18:31:53.798Z,100982.09
2022-09-21T18:37:30.059Z,100978.03
2022-09-21T18:43:03.917Z,100987.06
2022-09-21T18:48:46.135Z,100980.22
2022-09-21T18:54:22.717Z,100990.94
2022-09-21T18:59:46.063Z,100980.09
2022-09-21T19:05:12.190Z,100992.22
2022-09-21T19:10:44.228Z,100990.81
2022-09-21T19:16:12.605Z,100989.16
2022-09-21T19:21:45.433Z,100999.47
2022-09-21T19:27:13.917Z,100999.53
2022-09-21T19:32:44.671Z,100994.34
2022-09-21T19:38:08.569Z,100996.00
2022-09-21T19:43:44.856Z,100993.19
2022-09-21T19:49:18.398Z,100985.53
2022-09-21T19:54:40.445Z,100992.97
2022-09-21T20:00:04.618Z,100992.97
2022-09-21T20:05:39.414Z,100986.00
2022-09-21T20:11:42.597Z,100981.47
2022-09-21T20:17:05.830Z,100988.63
2022-09-21T20:22:39.673Z,100987.03
2022-09-21T20:28:01.954Z,101001.59
2022-09-21T20:33:23.803Z,100996.38
2022-09-21T20:38:45.580Z,101003.34
2022-09-21T20:44:11.404Z,100996.72
2022-09-21T20:49:33.200Z,101000.97
2022-09-21T20:54:55.297Z,101001.84
2022-09-21T21:00:17.277Z,100989.69
2022-09-21T21:05:39.197Z,100983.03
2022-09-21T21:11:01.018Z,100989.34
2022-09-21T21:16:23.225Z,100982.78
2022-09-21T21:21:45.352Z,100984.69
2022-09-21T21:27:12.488Z,100983.22
2022-09-21T21:32:35.310Z,100991.84
2022-09-21T21:37:57.330Z,100984.94
2022-09-21T21:43:19.151Z,100993.78
2022-09-21T21:48:40.992Z,100997.03
2022-09-21T21:54:03.008Z,100994.66
2022-09-21T21:59:24.852Z,100985.44
2022-09-21T22:04:46.640Z,100988.19
2022-09-21T22:10:08.969Z,100984.19
2022-09-21T22:15:30.802Z,100998.88
2022-09-21T22:20:52.742Z,100993.91
2022-09-21T22:26:16.482Z,100989.63
2022-09-21T22:31:41.861Z,100985.59
2022-09-21T22:37:04.142Z,101000.22
2022-09-21T22:42:26.150Z,100986.59
2022-09-21T22:47:47.975Z,100989.09
2022-09-21T22:53:09.792Z,101001.28
2022-09-21T22:58:38.773Z,100990.25
2022-09-21T23:04:03.991Z,100986.09
2022-09-21T23:09:25.792Z,100994.00
2022-09-21T23:14:47.571Z,100984.66
2022-09-21T23:20:11.302Z,100995.81
2022-09-21T23:25:33.092Z,101001.09
2022-09-21T23:31:03.769Z,101006.31
2022-09-21T23:36:28.343Z,100996.97
2022-09-21T23:41:50.275Z,100998.72
2022-09-21T23:47:12.027Z,100986.84
2022-09-21T23:52:33.823Z,100998.00
2022-09-21T23:57:55.964Z,100995.38
